createdAt,value
2023-04-18T00:00:12.373Z,27.95
2023-04-18T00:02:40.271Z,30.73
2023-04-18T00:05:08.516Z,29.65
2023-04-18T00:07:36.043Z,31.80
2023-04-18T00:10:03.635Z,31.13
2023-04-18T00:12:31.991Z,28.95
2023-04-18T00:14:59.176Z,30.55
2023-04-18T00:17:30.449Z,31.55
2023-04-18T00:19:58.360Z,29.10
2023-04-18T00:22:26.897Z,31.02
2023-04-18T00:24:54.075Z,29.65
2023-04-18T00:27:22.174Z,28.08
2023-04-18T00:29:49.796Z,28.20
2023-04-18T00:32:17.170Z,28.27
2023-04-18T00:34:44.429Z,28.38
2023-04-18T00:37:11.614Z,26.40
2023-04-18T00:39:38.729Z,26.90
2023-04-18T00:42:06.248Z,25.52
2023-04-18T00:44:33.656Z,25.05
2023-04-18T00:47:01.179Z,25.15
2023-04-18T00:49:28.501Z,24.27
2023-04-18T00:51:56.981Z,25.65
2023-04-18T00:54:25.131Z,25.50
2023-04-18T00:56:52.306Z,23.88
2023-04-18T00:59:19.473Z,22.42
2023-04-18T01:01:46.984Z,22.95
2023-04-18T01:04:14.705Z,21.63
2023-04-18T01:06:44.332Z,21.77
2023-04-18T01:09:11.685Z,22.60
2023-04-18T01:11:39.106Z,21.98
2023-04-18T01:14:08.527Z,20.75
2023-04-18T01:16:37.135Z,19.60
2023-04-18T01:19:05.768Z,18.98
2023-04-18T01:21:36.215Z,19.52
2023-04-18T01:24:12.184Z,18.35
2023-04-18T01:26:39.672Z,18.67
2023-04-18T01:29:06.826Z,18.45
2023-04-18T01:31:37.823Z,18.33
2023-04-18T01:34:05.745Z,17.52
2023-04-18T01:36:33.165Z,17.90
2023-04-18T01:39:00.766Z,19.08
2023-04-18T01:41:29.914Z,18.65
2023-04-18T01:43:57.119Z,17.70
2023-04-18T01:46:24.286Z,17.85
2023-04-18T01:48:51.408Z,18.35
2023-04-18T01:51:18.561Z,18.48
2023-04-18T01:53:45.768Z,18.05
2023-04-18T01:56:13.097Z,17.63
2023-04-18T01:58:41.642Z,18.48
2023-04-18T02:01:08.970Z,19.35
2023-04-18T02:03:36.564Z,19.58
2023-04-18T02:06:07.001Z,18.05
2023-04-18T02:08:35.973Z,18.08
2023-04-18T02:11:03.590Z,19.13
2023-04-18T02:13:31.011Z,19.13
2023-04-18T02:15:58.283Z,20.33
2023-04-18T02:18:25.835Z,19.75
2023-04-18T02:20:53.036Z,18.33
2023-04-18T02:23:20.323Z,19.70
2023-04-18T02:25:47.534Z,19.73
2023-04-18T02:28:14.647Z,20.70
2023-04-18T02:30:41.851Z,20.30
2023-04-18T02:33:09.050Z,19.35
2023-04-18T02:35:38.043Z,20.58
2023-04-18T02:38:05.412Z,18.00
2023-04-18T02:40:32.559Z,19.35
2023-04-18T02:42:59.766Z,20.10
2023-04-18T02:45:26.996Z,19.05
2023-04-18T02:47:56.490Z,18.52
2023-04-18T02:50:24.289Z,19.52
2023-04-18T02:52:51.473Z,18.60
2023-04-18T02:55:18.875Z,18.00
2023-04-18T02:57:46.358Z,19.08
2023-04-18T03:00:13.908Z,18.27
2023-04-18T03:02:41.217Z,18.50
2023-04-18T03:05:09.001Z,18.70
2023-04-18T03:07:36.160Z,18.08
2023-04-18T03:10:03.753Z,18.70
2023-04-18T03:12:30.895Z,17.67
2023-04-18T03:14:58.086Z,17.80
2023-04-18T03:17:25.337Z,19.73
2023-04-18T03:19:52.567Z,17.73
2023-04-18T03:22:19.789Z,18.75
2023-04-18T03:24:46.979Z,19.88
2023-04-18T03:27:14.128Z,20.92
2023-04-18T03:29:41.282Z,18.92
2023-04-18T03:32:08.404Z,19.60
2023-04-18T03:34:36.109Z,19.55
2023-04-18T03:37:03.210Z,19.10
2023-04-18T03:39:30.397Z,20.42
2023-04-18T03:41:57.756Z,20.17
2023-04-18T03:44:24.914Z,18.90
2023-04-18T03:46:52.063Z,20.48
2023-04-18T03:49:19.203Z,20.38
2023-04-18T03:51:50.305Z,20.35
2023-04-18T03:54:17.762Z,20.85
2023-04-18T03:56:45.341Z,20.83
2023-04-18T03:59:12.670Z,21.88
2023-04-18T04:01:39.903Z,22.23
2023-04-18T04:04:09.207Z,21.98
2023-04-18T04:06:36.593Z,21.40
2023-04-18T04:09:04.056Z,22.92
2023-04-18T04:11:31.356Z,24.35
2023-04-18T04:13:58.740Z,23.95
2023-04-18T04:16:25.989Z,22.85
2023-04-18T04:18:53.194Z,23.50
2023-04-18T04:21:21.242Z,24.10
2023-04-18T04:23:49.152Z,22.42
2023-04-18T04:26:16.534Z,23.80
2023-04-18T04:28:46.476Z,24.23
2023-04-18T04:31:13.747Z,23.10
2023-04-18T04:33:41.185Z,24.35
2023-04-18T04:36:08.976Z,23.48
2023-04-18T04:38:38.397Z,23.23
2023-04-18T04:41:09.253Z,22.35
2023-04-18T04:43:36.640Z,22.40
2023-04-18T04:46:04.714Z,23.65
2023-04-18T04:48:31.987Z,22.15
2023-04-18T04:51:01.908Z,23.55
2023-04-18T04:53:33.034Z,23.45
2023-04-18T04:56:00.293Z,22.63
2023-04-18T04:58:27.594Z,24.10
2023-04-18T05:00:54.958Z,23.20
2023-04-18T05:03:22.247Z,25.30
2023-04-18T05:05:49.544Z,25.90
2023-04-18T05:08:17.926Z,26.08
2023-04-18T05:10:45.982Z,26.65
2023-04-18T05:13:13.317Z,25.02
2023-04-18T05:15:40.717Z,24.35
2023-04-18T05:18:08.681Z,24.65
2023-04-18T05:20:36.013Z,24.83
2023-04-18T05:23:03.200Z,23.85
2023-04-18T05:25:31.525Z,25.02
2023-04-18T05:27:58.737Z,25.30
2023-04-18T05:30:25.909Z,24.55
2023-04-18T05:32:53.292Z,24.48
2023-04-18T05:35:23.239Z,25.55
2023-04-18T05:37:51.352Z,25.15
2023-04-18T05:40:18.496Z,24.58
2023-04-18T05:42:45.881Z,23.80
2023-04-18T05:45:13.126Z,24.50
2023-04-18T05:47:40.625Z,23.05
2023-04-18T05:50:08.237Z,21.73
2023-04-18T05:52:37.876Z,19.13
2023-04-18T05:55:05.710Z,18.45
2023-04-18T05:57:32.974Z,18.90
2023-04-18T06:00:00.095Z,18.15
2023-04-18T06:02:27.382Z,20.95
2023-04-18T06:04:55.042Z,18.83
2023-04-18T06:07:25.143Z,18.45
2023-04-18T06:09:54.001Z,17.70
2023-04-18T06:12:21.442Z,18.30
2023-04-18T06:14:48.598Z,26.00
2023-04-18T06:17:15.816Z,23.20
2023-04-18T06:19:43.014Z,20.83
2023-04-18T06:22:10.372Z,22.23
2023-04-18T06:24:37.551Z,18.73
2023-04-18T06:27:05.786Z,22.80
2023-04-18T06:29:33.281Z,21.83
2023-04-18T06:32:00.709Z,17.00
2023-04-18T06:34:27.995Z,18.92
2023-04-18T06:36:55.458Z,23.95
2023-04-18T06:39:22.615Z,19.65
2023-04-18T06:41:50.137Z,17.52
2023-04-18T06:44:17.315Z,17.17
2023-04-18T06:46:44.508Z,16.70
2023-04-18T06:49:11.684Z,16.08
2023-04-18T06:51:38.953Z,16.10
2023-04-18T06:54:06.233Z,15.65
2023-04-18T06:56:36.260Z,15.93
2023-04-18T06:59:03.668Z,16.25
2023-04-18T07:01:34.032Z,17.50
2023-04-18T07:04:01.474Z,18.45
2023-04-18T07:06:28.702Z,17.73
2023-04-18T07:09:00.061Z,18.08
2023-04-18T07:11:27.548Z,19.50
2023-04-18T07:13:54.709Z,18.67
2023-04-18T07:16:22.066Z,18.65
2023-04-18T07:18:49.286Z,19.10
2023-04-18T07:21:16.471Z,20.15
2023-04-18T07:23:43.628Z,20.95
2023-04-18T07:26:13.281Z,19.55
2023-04-18T07:28:40.621Z,20.60
2023-04-18T07:31:11.290Z,21.13
2023-04-18T07:33:38.989Z,21.20
2023-04-18T07:36:06.373Z,19.42
2023-04-18T07:38:35.409Z,20.52
2023-04-18T07:41:03.290Z,22.02
2023-04-18T07:43:30.877Z,24.80
2023-04-18T07:45:58.076Z,23.63
2023-04-18T07:48:25.540Z,23.88
2023-04-18T07:50:52.695Z,25.63
2023-04-18T07:53:20.106Z,25.88
2023-04-18T07:55:47.354Z,27.55
2023-04-18T07:58:15.013Z,26.98
2023-04-18T08:00:42.742Z,26.73
2023-04-18T08:03:11.078Z,32.17
2023-04-18T08:05:42.363Z,37.13
2023-04-18T08:08:11.128Z,29.75
2023-04-18T08:10:38.743Z,31.75
2023-04-18T08:13:05.975Z,36.63
2023-04-18T08:15:33.316Z,34.08
2023-04-18T08:18:01.146Z,33.30
2023-04-18T08:20:28.611Z,66.97
2023-04-18T08:25:26.411Z,28.48
2023-04-18T08:27:53.705Z,27.63
2023-04-18T08:30:21.174Z,29.35
2023-04-18T08:32:49.893Z,29.35
2023-04-18T08:35:17.356Z,28.63
2023-04-18T08:37:44.788Z,28.40
2023-04-18T08:40:11.970Z,30.95
2023-04-18T08:42:39.215Z,28.85
2023-04-18T08:45:07.040Z,30.20
2023-04-18T08:47:35.831Z,26.33
2023-04-18T08:50:03.379Z,26.75
2023-04-18T08:52:31.205Z,29.77
2023-04-18T08:54:58.390Z,29.63
2023-04-18T08:57:28.472Z,28.90
2023-04-18T08:59:55.684Z,25.77
2023-04-18T09:02:23.525Z,21.35
2023-04-18T09:04:54.024Z,20.67
2023-04-18T09:07:28.591Z,30.30
2023-04-18T09:09:57.331Z,15.68
2023-04-18T09:12:25.647Z,16.42
2023-04-18T09:14:57.785Z,18.13
2023-04-18T09:17:33.108Z,16.50
2023-04-18T09:20:01.530Z,19.02
2023-04-18T09:22:46.016Z,15.80
2023-04-18T09:25:24.851Z,18.80
2023-04-18T09:27:52.491Z,24.17
2023-04-18T09:30:33.462Z,18.88
2023-04-18T09:33:01.574Z,18.33
2023-04-18T09:35:29.064Z,17.40
2023-04-18T09:37:56.398Z,22.08
2023-04-18T09:40:24.164Z,23.23
2023-04-18T09:42:52.988Z,17.10
2023-04-18T09:45:20.217Z,21.65
2023-04-18T09:47:47.404Z,19.42
2023-04-18T09:50:17.061Z,18.67
2023-04-18T09:52:44.751Z,19.35
2023-04-18T09:55:13.491Z,20.25
2023-04-18T09:57:43.259Z,20.08
2023-04-18T10:00:20.449Z,18.13
2023-04-18T10:02:53.657Z,19.98
2023-04-18T10:05:22.056Z,19.05
2023-04-18T10:07:50.637Z,19.77
2023-04-18T10:10:18.302Z,20.45
2023-04-18T10:12:48.038Z,19.02
2023-04-18T10:15:16.049Z,19.42
2023-04-18T10:17:56.059Z,18.63
2023-04-18T10:20:31.130Z,18.75
2023-04-18T10:22:59.102Z,19.02
2023-04-18T10:25:41.584Z,19.30
2023-04-18T10:28:09.533Z,16.40
2023-04-18T10:30:42.253Z,17.77
2023-04-18T10:33:29.928Z,17.70
2023-04-18T10:36:00.502Z,17.10
2023-04-18T10:38:28.155Z,15.68
2023-04-18T10:41:13.291Z,16.65
2023-04-18T10:43:59.461Z,16.95
2023-04-18T10:46:32.589Z,16.90
2023-04-18T10:49:36.257Z,15.02
2023-04-18T10:52:04.465Z,14.02
2023-04-18T10:54:50.189Z,16.20
2023-04-18T10:57:17.855Z,13.48
2023-04-18T10:59:48.791Z,13.43
2023-04-18T11:02:24.223Z,14.70
2023-04-18T11:04:55.761Z,14.10
2023-04-18T11:07:35.068Z,14.30
2023-04-18T11:10:02.407Z,14.95
2023-04-18T11:12:34.215Z,14.73
2023-04-18T11:15:03.638Z,14.55
2023-04-18T11:17:40.124Z,14.27
2023-04-18T11:20:12.757Z,14.32
2023-04-18T11:22:47.204Z,16.83
2023-04-18T11:25:14.689Z,16.63
2023-04-18T11:27:43.070Z,16.75
2023-04-18T11:30:11.338Z,26.83
2023-04-18T11:32:38.743Z,20.35
2023-04-18T11:35:09.105Z,22.98
2023-04-18T11:37:37.622Z,57.85
2023-04-18T11:40:07.689Z,62.78
2023-04-18T11:42:35.794Z,32.72
2023-04-18T11:45:03.622Z,71.35
2023-04-18T11:47:33.328Z,47.63
2023-04-18T11:50:01.763Z,101.30
2023-04-18T11:52:29.729Z,95.40
2023-04-18T11:54:57.605Z,48.60
2023-04-18T11:57:26.303Z,71.78
2023-04-18T11:59:54.775Z,69.10
2023-04-18T12:02:22.841Z,28.15
2023-04-18T12:04:58.310Z,39.75
2023-04-18T12:07:42.310Z,31.58
2023-04-18T12:12:37.320Z,37.92
2023-04-18T12:15:04.883Z,56.00
2023-04-18T12:17:32.611Z,35.33
2023-04-18T12:20:03.846Z,25.50
2023-04-18T12:22:50.319Z,21.40
2023-04-18T12:25:24.353Z,25.50
2023-04-18T12:27:58.494Z,18.73
2023-04-18T12:30:27.307Z,19.40
2023-04-18T12:32:55.969Z,17.17
2023-04-18T12:35:24.241Z,17.55
2023-04-18T12:37:52.137Z,18.42
2023-04-18T12:40:20.396Z,17.15
2023-04-18T12:42:48.544Z,16.95
2023-04-18T12:45:16.802Z,16.88
2023-04-18T12:47:45.218Z,16.35
2023-04-18T12:50:17.729Z,17.35
2023-04-18T12:52:45.824Z,17.33
2023-04-18T12:55:13.352Z,16.52
2023-04-18T12:57:41.168Z,17.15
2023-04-18T13:00:11.488Z,17.05
2023-04-18T13:02:39.199Z,17.33
2023-04-18T13:05:07.826Z,15.27
2023-04-18T13:07:37.457Z,15.13
2023-04-18T13:10:05.119Z,15.50
2023-04-18T13:12:32.306Z,16.45
2023-04-18T13:14:59.474Z,16.70
2023-04-18T13:17:26.850Z,17.15
2023-04-18T13:19:54.076Z,16.92
2023-04-18T13:22:21.533Z,16.38
2023-04-18T13:24:48.834Z,16.88
2023-04-18T13:27:16.005Z,17.20
2023-04-18T13:29:44.520Z,17.35
2023-04-18T13:32:11.953Z,17.00
2023-04-18T13:34:40.405Z,16.67
2023-04-18T13:37:07.645Z,17.67
2023-04-18T13:39:34.872Z,18.20
2023-04-18T13:42:05.042Z,16.80
2023-04-18T13:44:32.411Z,17.42
2023-04-18T13:46:59.575Z,17.90
2023-04-18T13:49:27.005Z,17.83
2023-04-18T13:51:57.095Z,17.83
2023-04-18T13:54:26.535Z,18.63
2023-04-18T13:56:54.425Z,17.58
2023-04-18T13:59:21.549Z,17.92
2023-04-18T14:01:49.227Z,17.90
2023-04-18T14:04:17.100Z,18.50
2023-04-18T14:06:44.414Z,19.45
2023-04-18T14:09:11.596Z,18.75
2023-04-18T14:11:39.022Z,18.15
2023-04-18T14:14:07.229Z,18.88
2023-04-18T14:16:34.660Z,19.00
2023-04-18T14:19:02.394Z,19.05
2023-04-18T14:21:29.977Z,18.20
2023-04-18T14:23:57.383Z,20.73
2023-04-18T14:26:24.618Z,20.23
2023-04-18T14:28:52.158Z,64.57
2023-04-18T14:31:19.439Z,38.45
2023-04-18T14:33:46.674Z,48.92
2023-04-18T14:36:15.281Z,21.67
2023-04-18T14:38:42.557Z,19.13
2023-04-18T14:41:09.822Z,18.55
2023-04-18T14:43:37.064Z,18.50
2023-04-18T14:46:04.207Z,19.38
2023-04-18T14:48:31.434Z,27.90
2023-04-18T14:50:59.267Z,20.08
2023-04-18T14:53:27.105Z,21.30
2023-04-18T14:55:54.504Z,20.55
2023-04-18T14:58:21.753Z,20.75
2023-04-18T15:00:49.261Z,21.70
2023-04-18T15:03:16.914Z,26.20
2023-04-18T15:05:46.506Z,21.92
2023-04-18T15:08:14.577Z,22.02
2023-04-18T15:10:42.571Z,23.30
2023-04-18T15:13:11.085Z,23.15
2023-04-18T15:15:39.843Z,23.17
2023-04-18T15:18:08.429Z,23.33
2023-04-18T15:20:37.217Z,23.50
2023-04-18T15:23:04.596Z,22.88
2023-04-18T15:25:32.049Z,23.33
2023-04-18T15:27:59.226Z,22.45
2023-04-18T15:30:26.489Z,24.27
2023-04-18T15:32:54.068Z,23.50
2023-04-18T15:35:21.314Z,23.08
2023-04-18T15:37:49.208Z,23.75
2023-04-18T15:40:18.195Z,22.17
2023-04-18T15:42:46.022Z,22.02
2023-04-18T15:45:13.565Z,22.45
2023-04-18T15:47:41.718Z,22.23
2023-04-18T15:50:09.538Z,23.63
2023-04-18T15:52:36.816Z,23.02
2023-04-18T15:55:05.160Z,23.30
2023-04-18T15:57:32.811Z,22.05
2023-04-18T16:00:00.095Z,21.00
2023-04-18T16:02:27.500Z,19.83
2023-04-18T16:04:54.734Z,19.60
2023-04-18T16:07:21.935Z,18.30
2023-04-18T16:09:49.095Z,18.50
2023-04-18T16:12:16.358Z,21.38
2023-04-18T16:14:43.514Z,19.38
2023-04-18T16:17:10.660Z,18.52
2023-04-18T16:19:38.890Z,17.08
2023-04-18T16:22:07.330Z,17.60
2023-04-18T16:24:34.501Z,16.95
2023-04-18T16:27:01.706Z,17.38
2023-04-18T16:29:28.975Z,16.33
2023-04-18T16:31:58.156Z,17.35
2023-04-18T16:34:26.348Z,16.58
2023-04-18T16:36:55.141Z,18.05
2023-04-18T16:39:22.890Z,17.30
2023-04-18T16:41:51.236Z,16.42
2023-04-18T16:44:18.438Z,15.27
2023-04-18T16:46:45.777Z,14.68
2023-04-18T16:49:13.084Z,14.18
2023-04-18T16:51:40.519Z,14.63
2023-04-18T16:54:08.705Z,15.02
2023-04-18T16:56:35.917Z,26.80
2023-04-18T16:59:03.959Z,14.52
2023-04-18T17:01:31.912Z,13.60
2023-04-18T17:03:59.258Z,14.52
2023-04-18T17:06:27.176Z,14.23
2023-04-18T17:08:54.601Z,15.05
2023-04-18T17:11:21.877Z,14.07
2023-04-18T17:13:51.084Z,15.38
2023-04-18T17:16:18.568Z,13.85
2023-04-18T17:18:46.011Z,14.63
2023-04-18T17:21:13.228Z,15.43
2023-04-18T17:23:42.455Z,13.98
2023-04-18T17:26:10.551Z,15.98
2023-04-18T17:28:37.824Z,14.65
2023-04-18T17:31:05.340Z,14.75
2023-04-18T17:33:32.483Z,15.32
2023-04-18T17:35:59.677Z,14.63
2023-04-18T17:38:26.817Z,15.05
2023-04-18T17:41:00.890Z,16.20
2023-04-18T17:43:28.229Z,14.82
2023-04-18T17:45:56.978Z,15.77
2023-04-18T17:48:24.275Z,15.45
2023-04-18T17:50:51.424Z,16.20
2023-04-18T17:53:18.753Z,15.57
2023-04-18T17:55:48.907Z,17.30
2023-04-18T17:58:16.915Z,16.80
2023-04-18T18:00:44.073Z,17.30
2023-04-18T18:03:13.866Z,16.80
2023-04-18T18:05:41.528Z,35.20
2023-04-18T18:08:08.873Z,18.90
2023-04-18T18:10:36.122Z,17.30
2023-04-18T18:13:03.521Z,17.08
2023-04-18T18:15:31.408Z,19.40
2023-04-18T18:17:58.693Z,18.35
2023-04-18T18:20:27.339Z,16.98
2023-04-18T18:22:55.106Z,18.02
2023-04-18T18:25:22.375Z,17.77
2023-04-18T18:27:51.252Z,17.42
2023-04-18T18:30:19.595Z,18.80
2023-04-18T18:32:46.844Z,17.73
2023-04-18T18:35:14.240Z,18.33
2023-04-18T18:37:41.624Z,21.05
2023-04-18T18:40:09.231Z,18.67
2023-04-18T18:42:36.354Z,19.48
2023-04-18T18:45:04.000Z,19.92
2023-04-18T18:47:31.187Z,19.45
2023-04-18T18:49:58.378Z,20.85
2023-04-18T18:52:27.976Z,20.33
2023-04-18T18:54:55.260Z,20.77
2023-04-18T18:57:22.387Z,20.77
2023-04-18T18:59:50.241Z,21.38
2023-04-18T19:02:17.799Z,20.75
2023-04-18T19:04:45.431Z,20.75
2023-04-18T19:07:12.685Z,21.40
2023-04-18T19:09:39.817Z,20.70
2023-04-18T19:12:07.152Z,20.70
2023-04-18T19:14:34.392Z,21.70
2023-04-18T19:17:01.592Z,21.70
2023-04-18T19:19:28.820Z,21.08
2023-04-18T19:21:56.483Z,21.55
2023-04-18T19:24:23.692Z,20.38
2023-04-18T19:26:50.943Z,19.08
2023-04-18T19:29:18.146Z,20.13
2023-04-18T19:31:45.702Z,20.77
2023-04-18T19:34:13.537Z,19.10
2023-04-18T19:36:40.778Z,19.48
2023-04-18T19:39:08.988Z,18.92
2023-04-18T19:41:36.156Z,20.17
2023-04-18T19:44:03.932Z,19.83
2023-04-18T19:46:31.216Z,20.10
2023-04-18T19:48:58.432Z,19.75
2023-04-18T19:51:27.841Z,20.60
2023-04-18T19:53:55.675Z,22.02
2023-04-18T19:56:23.472Z,20.48
2023-04-18T19:58:51.084Z,20.80
2023-04-18T20:01:19.560Z,21.83
2023-04-18T20:03:47.190Z,19.08
2023-04-18T20:06:14.526Z,21.05
2023-04-18T20:08:42.062Z,20.33
2023-04-18T20:11:10.027Z,20.88
2023-04-18T20:13:37.517Z,22.40
2023-04-18T20:16:09.125Z,21.35
2023-04-18T20:18:37.693Z,21.33
2023-04-18T20:21:06.564Z,21.38
2023-04-18T20:23:34.231Z,21.17
2023-04-18T20:26:01.517Z,21.67
2023-04-18T20:28:28.742Z,20.80
2023-04-18T20:30:56.529Z,20.40
2023-04-18T20:33:23.714Z,21.77
2023-04-18T20:35:50.982Z,21.45
2023-04-18T20:38:20.117Z,22.30
2023-04-18T20:40:47.243Z,21.75
2023-04-18T20:43:17.330Z,23.45
2023-04-18T20:45:45.909Z,23.17
2023-04-18T20:48:13.130Z,22.92
2023-04-18T20:50:41.015Z,22.13
2023-04-18T20:53:08.153Z,23.20
2023-04-18T20:55:35.325Z,24.25
2023-04-18T20:58:05.278Z,23.83
2023-04-18T21:00:32.450Z,23.30
2023-04-18T21:02:59.825Z,22.08
2023-04-18T21:05:27.088Z,21.83
2023-04-18T21:07:54.243Z,19.92
2023-04-18T21:10:21.406Z,22.08
2023-04-18T21:12:48.551Z,20.88
2023-04-18T21:15:15.712Z,20.58
2023-04-18T21:17:42.923Z,20.92
2023-04-18T21:20:10.318Z,20.63
2023-04-18T21:22:37.490Z,20.95
2023-04-18T21:25:05.119Z,20.17
2023-04-18T21:27:32.278Z,21.63
2023-04-18T21:29:59.855Z,21.30
2023-04-18T21:32:27.037Z,22.70
2023-04-18T21:34:56.311Z,20.98
2023-04-18T21:37:23.528Z,22.58
2023-04-18T21:39:50.695Z,21.63
2023-04-18T21:42:17.835Z,21.80
2023-04-18T21:44:44.999Z,22.50
2023-04-18T21:47:12.166Z,22.90
2023-04-18T21:49:39.296Z,23.27
2023-04-18T21:52:07.881Z,23.70
2023-04-18T21:54:35.107Z,22.83
2023-04-18T21:57:02.752Z,22.27
2023-04-18T21:59:30.648Z,21.40
2023-04-18T22:01:57.934Z,22.05
2023-04-18T22:04:26.738Z,22.13
2023-04-18T22:06:54.233Z,23.10
2023-04-18T22:09:22.613Z,21.55
2023-04-18T22:11:51.594Z,22.65
2023-04-18T22:14:19.982Z,22.45
2023-04-18T22:16:47.632Z,22.60
2023-04-18T22:19:14.795Z,24.33
2023-04-18T22:21:41.923Z,21.77
2023-04-18T22:24:09.625Z,23.02
2023-04-18T22:26:36.728Z,26.30
2023-04-18T22:29:03.948Z,24.05
2023-04-18T22:31:31.386Z,25.08
2023-04-18T22:33:58.607Z,27.52
2023-04-18T22:36:27.587Z,26.13
2023-04-18T22:38:54.744Z,28.38
2023-04-18T22:41:21.879Z,29.80
2023-04-18T22:43:49.157Z,28.35
2023-04-18T22:46:16.584Z,27.27
2023-04-18T22:48:44.863Z,30.92
2023-04-18T22:51:14.154Z,30.75
2023-04-18T22:53:41.313Z,30.50
2023-04-18T22:56:08.662Z,28.40
2023-04-18T22:58:36.330Z,28.23
2023-04-18T23:01:03.646Z,31.52
2023-04-18T23:03:34.355Z,27.33
2023-04-18T23:06:01.775Z,28.40
2023-04-18T23:08:29.097Z,27.55
2023-04-18T23:10:56.216Z,27.58
2023-04-18T23:13:23.428Z,29.25
2023-04-18T23:15:50.657Z,28.23
2023-04-18T23:18:17.900Z,27.40
2023-04-18T23:20:45.090Z,29.83
2023-04-18T23:23:12.517Z,29.50
2023-04-18T23:25:39.774Z,28.20
2023-04-18T23:28:07.028Z,29.75
2023-04-18T23:30:37.056Z,28.58
2023-04-18T23:33:04.366Z,27.95
2023-04-18T23:35:31.538Z,30.08
2023-04-18T23:37:58.744Z,31.55
2023-04-18T23:40:25.940Z,32.58
2023-04-18T23:42:53.077Z,30.45
2023-04-18T23:45:20.257Z,31.67
2023-04-18T23:47:47.862Z,30.48
2023-04-18T23:50:15.014Z,31.13
2023-04-18T23:52:42.154Z,33.95
2023-04-18T23:55:09.602Z,34.55
2023-04-18T23:57:36.787Z,34.47
